sensor_id;sensor_type;location;lat;lon;timestamp;temperature;humidity
17571;DHT22;8903;52.220;20.978;2022-08-19T00:00:02;23.40;99.90
17571;DHT22;8903;52.220;20.978;2022-08-19T00:02:29;23.30;99.90
17571;DHT22;8903;52.220;20.978;2022-08-19T00:04:56;23.30;99.90
17571;DHT22;8903;52.220;20.978;2022-08-19T00:07:23;23.30;99.90
17571;DHT22;8903;52.220;20.978;2022-08-19T00:09:49;23.20;99.90
17571;DHT22;8903;52.220;20.978;2022-08-19T00:12:16;23.20;99.90
17571;DHT22;8903;52.220;20.978;2022-08-19T00:14:44;23.20;99.90
17571;DHT22;8903;52.220;20.978;2022-08-19T00:17:11;23.20;99.90
17571;DHT22;8903;52.220;20.978;2022-08-19T00:19:38;23.20;99.90
17571;DHT22;8903;52.220;20.978;2022-08-19T00:22:06;23.10;99.90
17571;DHT22;8903;52.220;20.978;2022-08-19T00:24:34;23.10;99.90
17571;DHT22;8903;52.220;20.978;2022-08-19T00:27:02;23.00;99.90
17571;DHT22;8903;52.220;20.978;2022-08-19T00:29:28;23.00;99.90
17571;DHT22;8903;52.220;20.978;2022-08-19T00:31:57;23.00;99.90
17571;DHT22;8903;52.220;20.978;2022-08-19T00:34:25;23.00;99.90
17571;DHT22;8903;52.220;20.978;2022-08-19T00:36:53;23.00;99.90
17571;DHT22;8903;52.220;20.978;2022-08-19T00:39:20;23.00;99.90
17571;DHT22;8903;52.220;20.978;2022-08-19T00:41:47;22.90;99.90
17571;DHT22;8903;52.220;20.978;2022-08-19T00:44:16;22.90;99.90
17571;DHT22;8903;52.220;20.978;2022-08-19T00:46:45;22.90;99.90
17571;DHT22;8903;52.220;20.978;2022-08-19T00:49:14;22.90;99.90
17571;DHT22;8903;52.220;20.978;2022-08-19T00:51:41;22.90;99.90
17571;DHT22;8903;52.220;20.978;2022-08-19T00:54:09;22.90;99.90
17571;DHT22;8903;52.220;20.978;2022-08-19T00:56:35;22.80;99.90
17571;DHT22;8903;52.220;20.978;2022-08-19T00:59:03;22.80;99.90
17571;DHT22;8903;52.220;20.978;2022-08-19T01:01:34;22.70;99.90
17571;DHT22;8903;52.220;20.978;2022-08-19T01:04:01;22.70;99.90
17571;DHT22;8903;52.220;20.978;2022-08-19T01:06:30;22.70;99.90
17571;DHT22;8903;52.220;20.978;2022-08-19T01:08:57;22.70;99.90
17571;DHT22;8903;52.220;20.978;2022-08-19T01:11:24;22.70;99.90
17571;DHT22;8903;52.220;20.978;2022-08-19T01:13:52;22.70;99.90
17571;DHT22;8903;52.220;20.978;2022-08-19T01:16:20;22.60;99.90
17571;DHT22;8903;52.220;20.978;2022-08-19T01:18:48;22.60;99.90
17571;DHT22;8903;52.220;20.978;2022-08-19T01:21:18;22.60;99.90
17571;DHT22;8903;52.220;20.978;2022-08-19T01:23:47;22.60;99.90
17571;DHT22;8903;52.220;20.978;2022-08-19T01:26:15;22.60;99.90
17571;DHT22;8903;52.220;20.978;2022-08-19T01:28:42;22.60;99.90
17571;DHT22;8903;52.220;20.978;2022-08-19T01:31:12;22.60;99.90
17571;DHT22;8903;52.220;20.978;2022-08-19T01:33:39;22.60;99.90
17571;DHT22;8903;52.220;20.978;2022-08-19T01:36:07;22.60;99.90
17571;DHT22;8903;52.220;20.978;2022-08-19T01:38:35;22.60;99.90
17571;DHT22;8903;52.220;20.978;2022-08-19T01:41:03;22.60;99.90
17571;DHT22;8903;52.220;20.978;2022-08-19T01:43:31;22.60;99.90
17571;DHT22;8903;52.220;20.978;2022-08-19T01:45:58;22.60;99.90
17571;DHT22;8903;52.220;20.978;2022-08-19T01:48:24;22.60;99.90
17571;DHT22;8903;52.220;20.978;2022-08-19T01:50:51;22.60;99.90
17571;DHT22;8903;52.220;20.978;2022-08-19T01:53:18;22.50;99.90
17571;DHT22;8903;52.220;20.978;2022-08-19T01:55:45;22.50;99.90
17571;DHT22;8903;52.220;20.978;2022-08-19T01:58:18;22.50;99.90
17571;DHT22;8903;52.220;20.978;2022-08-19T02:00:46;22.40;99.90
17571;DHT22;8903;52.220;20.978;2022-08-19T02:03:13;22.40;99.90
17571;DHT22;8903;52.220;20.978;2022-08-19T02:05:40;22.30;99.90
17571;DHT22;8903;52.220;20.978;2022-08-19T02:08:07;22.30;99.90
17571;DHT22;8903;52.220;20.978;2022-08-19T02:10:37;22.30;99.90
17571;DHT22;8903;52.220;20.978;2022-08-19T02:13:04;22.30;99.90
17571;DHT22;8903;52.220;20.978;2022-08-19T02:15:32;22.30;99.90
17571;DHT22;8903;52.220;20.978;2022-08-19T02:17:59;22.20;99.90
17571;DHT22;8903;52.220;20.978;2022-08-19T02:20:25;22.20;99.90
17571;DHT22;8903;52.220;20.978;2022-08-19T02:22:52;22.10;99.90
17571;DHT22;8903;52.220;20.978;2022-08-19T02:25:19;22.10;99.90
17571;DHT22;8903;52.220;20.978;2022-08-19T02:27:46;22.10;99.90
17571;DHT22;8903;52.220;20.978;2022-08-19T02:30:15;22.10;99.90
17571;DHT22;8903;52.220;20.978;2022-08-19T02:32:43;22.10;99.90
17571;DHT22;8903;52.220;20.978;2022-08-19T02:35:11;22.00;99.90
17571;DHT22;8903;52.220;20.978;2022-08-19T02:37:37;22.00;99.90
17571;DHT22;8903;52.220;20.978;2022-08-19T02:40:22;22.00;99.90
17571;DHT22;8903;52.220;20.978;2022-08-19T02:42:49;22.00;99.90
17571;DHT22;8903;52.220;20.978;2022-08-19T02:45:16;22.00;99.90
17571;DHT22;8903;52.220;20.978;2022-08-19T02:47:44;22.00;99.90
17571;DHT22;8903;52.220;20.978;2022-08-19T02:50:10;22.00;99.90
17571;DHT22;8903;52.220;20.978;2022-08-19T02:52:38;22.00;99.90
17571;DHT22;8903;52.220;20.978;2022-08-19T02:55:05;22.00;99.90
17571;DHT22;8903;52.220;20.978;2022-08-19T02:57:32;21.90;99.90
17571;DHT22;8903;52.220;20.978;2022-08-19T02:59:59;21.90;99.90
17571;DHT22;8903;52.220;20.978;2022-08-19T03:02:26;21.90;99.90
17571;DHT22;8903;52.220;20.978;2022-08-19T03:04:54;21.90;99.90
17571;DHT22;8903;52.220;20.978;2022-08-19T03:07:21;21.80;99.90
17571;DHT22;8903;52.220;20.978;2022-08-19T03:09:48;21.80;99.90
17571;DHT22;8903;52.220;20.978;2022-08-19T03:12:14;21.80;99.90
17571;DHT22;8903;52.220;20.978;2022-08-19T03:14:41;21.80;99.90
17571;DHT22;8903;52.220;20.978;2022-08-19T03:17:08;21.80;99.90
17571;DHT22;8903;52.220;20.978;2022-08-19T03:19:34;21.80;99.90
17571;DHT22;8903;52.220;20.978;2022-08-19T03:22:02;21.80;99.90
17571;DHT22;8903;52.220;20.978;2022-08-19T03:24:30;21.80;99.90
17571;DHT22;8903;52.220;20.978;2022-08-19T03:26:57;21.80;99.90
17571;DHT22;8903;52.220;20.978;2022-08-19T03:29:24;21.80;99.90
17571;DHT22;8903;52.220;20.978;2022-08-19T03:31:51;21.80;99.90
17571;DHT22;8903;52.220;20.978;2022-08-19T03:34:18;21.80;99.90
17571;DHT22;8903;52.220;20.978;2022-08-19T03:36:46;21.20;99.90
17571;DHT22;8903;52.220;20.978;2022-08-19T03:39:15;21.80;99.90
17571;DHT22;8903;52.220;20.978;2022-08-19T03:41:42;21.80;99.90
17571;DHT22;8903;52.220;20.978;2022-08-19T03:44:09;21.70;99.90
17571;DHT22;8903;52.220;20.978;2022-08-19T03:46:36;21.80;99.90
17571;DHT22;8903;52.220;20.978;2022-08-19T03:49:03;21.70;99.90
17571;DHT22;8903;52.220;20.978;2022-08-19T03:51:34;21.70;99.90
17571;DHT22;8903;52.220;20.978;2022-08-19T03:54:02;21.80;99.90
17571;DHT22;8903;52.220;20.978;2022-08-19T03:56:30;21.80;99.90
17571;DHT22;8903;52.220;20.978;2022-08-19T03:58:57;21.80;99.90
17571;DHT22;8903;52.220;20.978;2022-08-19T04:01:25;21.80;99.90
17571;DHT22;8903;52.220;20.978;2022-08-19T04:03:53;21.80;99.90
17571;DHT22;8903;52.220;20.978;2022-08-19T04:06:20;21.90;99.90
17571;DHT22;8903;52.220;20.978;2022-08-19T04:08:49;21.90;99.90
17571;DHT22;8903;52.220;20.978;2022-08-19T04:11:17;21.90;99.90
17571;DHT22;8903;52.220;20.978;2022-08-19T04:13:47;22.00;99.90
17571;DHT22;8903;52.220;20.978;2022-08-19T04:16:14;22.00;99.90
17571;DHT22;8903;52.220;20.978;2022-08-19T04:18:41;22.00;99.90
17571;DHT22;8903;52.220;20.978;2022-08-19T04:21:08;22.10;99.90
17571;DHT22;8903;52.220;20.978;2022-08-19T04:23:34;22.10;99.90
17571;DHT22;8903;52.220;20.978;2022-08-19T04:26:02;22.20;99.90
17571;DHT22;8903;52.220;20.978;2022-08-19T04:28:29;22.30;99.90
17571;DHT22;8903;52.220;20.978;2022-08-19T04:30:57;22.40;99.90
17571;DHT22;8903;52.220;20.978;2022-08-19T04:33:24;22.50;99.90
17571;DHT22;8903;52.220;20.978;2022-08-19T04:35:51;22.60;99.90
17571;DHT22;8903;52.220;20.978;2022-08-19T04:38:19;22.70;99.90
17571;DHT22;8903;52.220;20.978;2022-08-19T04:40:48;22.80;99.90
17571;DHT22;8903;52.220;20.978;2022-08-19T04:43:33;22.90;99.90
17571;DHT22;8903;52.220;20.978;2022-08-19T04:46:05;23.00;99.90
17571;DHT22;8903;52.220;20.978;2022-08-19T04:48:32;23.10;99.90
17571;DHT22;8903;52.220;20.978;2022-08-19T04:50:58;23.20;99.90
17571;DHT22;8903;52.220;20.978;2022-08-19T04:53:25;23.30;99.90
17571;DHT22;8903;52.220;20.978;2022-08-19T04:55:54;23.40;99.90
17571;DHT22;8903;52.220;20.978;2022-08-19T04:58:21;23.50;99.90
17571;DHT22;8903;52.220;20.978;2022-08-19T05:00:48;23.60;99.90
17571;DHT22;8903;52.220;20.978;2022-08-19T05:03:17;23.70;99.90
17571;DHT22;8903;52.220;20.978;2022-08-19T05:05:44;23.70;99.90
17571;DHT22;8903;52.220;20.978;2022-08-19T05:08:14;23.80;99.90
17571;DHT22;8903;52.220;20.978;2022-08-19T05:10:43;23.90;99.90
17571;DHT22;8903;52.220;20.978;2022-08-19T05:13:10;23.80;99.90
17571;DHT22;8903;52.220;20.978;2022-08-19T05:15:37;23.80;99.90
17571;DHT22;8903;52.220;20.978;2022-08-19T05:18:04;23.70;99.90
17571;DHT22;8903;52.220;20.978;2022-08-19T05:20:49;23.70;99.90
17571;DHT22;8903;52.220;20.978;2022-08-19T05:23:47;23.70;99.90
17571;DHT22;8903;52.220;20.978;2022-08-19T05:26:15;23.60;99.90
17571;DHT22;8903;52.220;20.978;2022-08-19T05:28:41;23.70;99.90
17571;DHT22;8903;52.220;20.978;2022-08-19T05:31:08;23.60;99.90
17571;DHT22;8903;52.220;20.978;2022-08-19T05:33:35;23.60;99.90
17571;DHT22;8903;52.220;20.978;2022-08-19T05:36:03;23.60;99.90
17571;DHT22;8903;52.220;20.978;2022-08-19T05:38:31;23.60;99.90
17571;DHT22;8903;52.220;20.978;2022-08-19T05:40:57;23.50;99.90
17571;DHT22;8903;52.220;20.978;2022-08-19T05:43:24;23.60;99.90
17571;DHT22;8903;52.220;20.978;2022-08-19T05:45:51;23.60;99.90
17571;DHT22;8903;52.220;20.978;2022-08-19T05:48:18;23.70;99.90
17571;DHT22;8903;52.220;20.978;2022-08-19T05:50:45;23.80;99.90
17571;DHT22;8903;52.220;20.978;2022-08-19T05:53:17;23.90;99.90
17571;DHT22;8903;52.220;20.978;2022-08-19T05:55:43;24.00;99.90
17571;DHT22;8903;52.220;20.978;2022-08-19T05:58:10;24.00;99.90
17571;DHT22;8903;52.220;20.978;2022-08-19T06:00:37;24.10;99.90
17571;DHT22;8903;52.220;20.978;2022-08-19T06:03:05;24.20;99.90
17571;DHT22;8903;52.220;20.978;2022-08-19T06:05:32;24.40;99.90
17571;DHT22;8903;52.220;20.978;2022-08-19T06:07:59;24.60;99.90
17571;DHT22;8903;52.220;20.978;2022-08-19T06:10:27;24.70;99.90
17571;DHT22;8903;52.220;20.978;2022-08-19T06:12:54;24.90;99.90
17571;DHT22;8903;52.220;20.978;2022-08-19T06:15:21;24.90;99.90
17571;DHT22;8903;52.220;20.978;2022-08-19T06:17:50;24.90;99.90
17571;DHT22;8903;52.220;20.978;2022-08-19T06:20:17;25.00;99.90
17571;DHT22;8903;52.220;20.978;2022-08-19T06:22:45;25.10;99.90
17571;DHT22;8903;52.220;20.978;2022-08-19T06:25:13;25.20;99.90
17571;DHT22;8903;52.220;20.978;2022-08-19T06:27:42;25.30;99.90
17571;DHT22;8903;52.220;20.978;2022-08-19T06:30:10;25.30;99.90
17571;DHT22;8903;52.220;20.978;2022-08-19T06:32:37;25.40;99.90
17571;DHT22;8903;52.220;20.978;2022-08-19T06:35:04;25.50;99.90
17571;DHT22;8903;52.220;20.978;2022-08-19T06:37:31;25.50;99.90
17571;DHT22;8903;52.220;20.978;2022-08-19T06:39:58;25.60;99.90
17571;DHT22;8903;52.220;20.978;2022-08-19T06:42:25;25.70;99.90
17571;DHT22;8903;52.220;20.978;2022-08-19T06:44:53;25.90;99.90
17571;DHT22;8903;52.220;20.978;2022-08-19T06:47:20;25.90;99.90
17571;DHT22;8903;52.220;20.978;2022-08-19T06:49:47;25.90;99.90
17571;DHT22;8903;52.220;20.978;2022-08-19T06:52:14;25.90;99.90
17571;DHT22;8903;52.220;20.978;2022-08-19T06:54:41;25.80;99.90
17571;DHT22;8903;52.220;20.978;2022-08-19T06:57:08;25.80;99.90
17571;DHT22;8903;52.220;20.978;2022-08-19T06:59:38;25.80;99.90
17571;DHT22;8903;52.220;20.978;2022-08-19T07:02:07;25.80;99.90
17571;DHT22;8903;52.220;20.978;2022-08-19T07:04:34;25.80;99.90
17571;DHT22;8903;52.220;20.978;2022-08-19T07:07:03;25.90;99.90
17571;DHT22;8903;52.220;20.978;2022-08-19T07:09:31;25.90;99.90
17571;DHT22;8903;52.220;20.978;2022-08-19T07:11:58;25.90;99.90
17571;DHT22;8903;52.220;20.978;2022-08-19T07:14:25;26.00;99.90
17571;DHT22;8903;52.220;20.978;2022-08-19T07:16:53;26.00;99.90
17571;DHT22;8903;52.220;20.978;2022-08-19T07:19:23;26.10;99.90
17571;DHT22;8903;52.220;20.978;2022-08-19T07:21:51;26.10;99.90
17571;DHT22;8903;52.220;20.978;2022-08-19T07:24:19;26.20;99.90
17571;DHT22;8903;52.220;20.978;2022-08-19T07:26:49;26.40;99.90
17571;DHT22;8903;52.220;20.978;2022-08-19T07:29:16;26.50;99.90
17571;DHT22;8903;52.220;20.978;2022-08-19T07:31:43;26.60;99.90
17571;DHT22;8903;52.220;20.978;2022-08-19T07:34:10;26.70;99.90
17571;DHT22;8903;52.220;20.978;2022-08-19T07:36:40;26.80;99.90
17571;DHT22;8903;52.220;20.978;2022-08-19T07:39:09;26.80;99.90
17571;DHT22;8903;52.220;20.978;2022-08-19T07:41:36;27.00;99.90
17571;DHT22;8903;52.220;20.978;2022-08-19T07:44:04;27.10;99.90
17571;DHT22;8903;52.220;20.978;2022-08-19T07:46:33;27.10;99.90
17571;DHT22;8903;52.220;20.978;2022-08-19T07:49:00;27.20;99.90
17571;DHT22;8903;52.220;20.978;2022-08-19T07:51:27;27.20;99.90
17571;DHT22;8903;52.220;20.978;2022-08-19T07:53:55;27.30;99.90
17571;DHT22;8903;52.220;20.978;2022-08-19T07:56:22;27.40;99.90
17571;DHT22;8903;52.220;20.978;2022-08-19T07:58:50;27.60;99.90
17571;DHT22;8903;52.220;20.978;2022-08-19T08:01:18;27.60;99.90
17571;DHT22;8903;52.220;20.978;2022-08-19T08:03:45;27.60;99.90
17571;DHT22;8903;52.220;20.978;2022-08-19T08:06:30;27.70;99.90
17571;DHT22;8903;52.220;20.978;2022-08-19T08:09:16;27.70;99.90
17571;DHT22;8903;52.220;20.978;2022-08-19T08:11:48;27.80;99.90
17571;DHT22;8903;52.220;20.978;2022-08-19T08:14:15;27.80;99.90
17571;DHT22;8903;52.220;20.978;2022-08-19T08:16:42;27.80;99.90
17571;DHT22;8903;52.220;20.978;2022-08-19T08:19:10;27.90;99.90
17571;DHT22;8903;52.220;20.978;2022-08-19T08:21:38;27.80;99.90
17571;DHT22;8903;52.220;20.978;2022-08-19T08:24:04;27.90;99.90
17571;DHT22;8903;52.220;20.978;2022-08-19T08:26:33;27.80;99.90
17571;DHT22;8903;52.220;20.978;2022-08-19T08:28:59;27.70;99.90
17571;DHT22;8903;52.220;20.978;2022-08-19T08:31:26;27.70;99.90
17571;DHT22;8903;52.220;20.978;2022-08-19T08:33:53;27.80;99.90
17571;DHT22;8903;52.220;20.978;2022-08-19T08:36:20;27.90;99.90
17571;DHT22;8903;52.220;20.978;2022-08-19T08:38:47;28.10;99.90
17571;DHT22;8903;52.220;20.978;2022-08-19T08:41:17;28.20;99.90
17571;DHT22;8903;52.220;20.978;2022-08-19T08:43:48;28.20;99.90
17571;DHT22;8903;52.220;20.978;2022-08-19T08:46:17;28.30;99.90
17571;DHT22;8903;52.220;20.978;2022-08-19T08:48:47;28.30;99.90
17571;DHT22;8903;52.220;20.978;2022-08-19T08:51:16;28.40;99.90
17571;DHT22;8903;52.220;20.978;2022-08-19T08:53:45;28.60;99.90
17571;DHT22;8903;52.220;20.978;2022-08-19T08:56:13;28.70;99.90
17571;DHT22;8903;52.220;20.978;2022-08-19T08:58:42;28.80;99.90
17571;DHT22;8903;52.220;20.978;2022-08-19T09:01:12;28.80;99.90
17571;DHT22;8903;52.220;20.978;2022-08-19T09:03:40;29.00;99.90
17571;DHT22;8903;52.220;20.978;2022-08-19T09:06:10;29.10;99.90
17571;DHT22;8903;52.220;20.978;2022-08-19T09:08:40;29.20;99.90
17571;DHT22;8903;52.220;20.978;2022-08-19T09:11:13;29.20;99.90
17571;DHT22;8903;52.220;20.978;2022-08-19T09:13:42;29.30;99.90
17571;DHT22;8903;52.220;20.978;2022-08-19T09:16:13;29.30;99.90
17571;DHT22;8903;52.220;20.978;2022-08-19T09:18:42;29.30;99.90
17571;DHT22;8903;52.220;20.978;2022-08-19T09:21:09;29.40;99.90
17571;DHT22;8903;52.220;20.978;2022-08-19T09:23:36;29.40;99.90
17571;DHT22;8903;52.220;20.978;2022-08-19T09:26:06;29.30;99.90
17571;DHT22;8903;52.220;20.978;2022-08-19T09:28:33;29.30;99.90
17571;DHT22;8903;52.220;20.978;2022-08-19T09:31:00;29.40;99.90
17571;DHT22;8903;52.220;20.978;2022-08-19T09:33:28;29.50;99.90
17571;DHT22;8903;52.220;20.978;2022-08-19T09:36:03;29.50;99.90
17571;DHT22;8903;52.220;20.978;2022-08-19T09:38:30;29.60;99.90
17571;DHT22;8903;52.220;20.978;2022-08-19T09:41:01;29.70;99.90
17571;DHT22;8903;52.220;20.978;2022-08-19T09:43:28;29.80;99.90
17571;DHT22;8903;52.220;20.978;2022-08-19T09:45:55;29.90;99.90
17571;DHT22;8903;52.220;20.978;2022-08-19T09:48:21;29.90;99.90
17571;DHT22;8903;52.220;20.978;2022-08-19T09:50:49;30.10;99.90
17571;DHT22;8903;52.220;20.978;2022-08-19T09:53:16;30.20;99.90
17571;DHT22;8903;52.220;20.978;2022-08-19T09:55:43;30.30;99.90
17571;DHT22;8903;52.220;20.978;2022-08-19T09:58:10;30.20;99.90
17571;DHT22;8903;52.220;20.978;2022-08-19T10:00:37;30.20;99.90
17571;DHT22;8903;52.220;20.978;2022-08-19T10:03:04;30.20;99.90
17571;DHT22;8903;52.220;20.978;2022-08-19T10:05:31;30.30;99.90
17571;DHT22;8903;52.220;20.978;2022-08-19T10:08:18;30.30;99.90
17571;DHT22;8903;52.220;20.978;2022-08-19T10:10:47;30.30;99.90
17571;DHT22;8903;52.220;20.978;2022-08-19T10:13:15;30.30;99.90
17571;DHT22;8903;52.220;20.978;2022-08-19T10:15:42;30.30;99.90
17571;DHT22;8903;52.220;20.978;2022-08-19T10:18:11;30.40;99.90
17571;DHT22;8903;52.220;20.978;2022-08-19T10:20:38;30.50;99.90
17571;DHT22;8903;52.220;20.978;2022-08-19T10:23:07;30.70;99.50
17571;DHT22;8903;52.220;20.978;2022-08-19T10:25:35;30.90;99.50
17571;DHT22;8903;52.220;20.978;2022-08-19T10:28:03;31.00;99.30
17571;DHT22;8903;52.220;20.978;2022-08-19T10:30:31;31.00;99.10
17571;DHT22;8903;52.220;20.978;2022-08-19T10:32:58;31.20;98.90
17571;DHT22;8903;52.220;20.978;2022-08-19T10:35:24;31.40;98.40
17571;DHT22;8903;52.220;20.978;2022-08-19T10:37:57;31.40;97.80
17571;DHT22;8903;52.220;20.978;2022-08-19T10:40:27;31.50;97.60
17571;DHT22;8903;52.220;20.978;2022-08-19T10:42:55;31.40;97.60
17571;DHT22;8903;52.220;20.978;2022-08-19T10:45:22;31.60;97.80
17571;DHT22;8903;52.220;20.978;2022-08-19T10:47:50;31.60;97.50
17571;DHT22;8903;52.220;20.978;2022-08-19T10:50:17;31.60;97.20
17571;DHT22;8903;52.220;20.978;2022-08-19T10:53:12;31.70;97.20
17571;DHT22;8903;52.220;20.978;2022-08-19T10:55:40;31.80;96.80
17571;DHT22;8903;52.220;20.978;2022-08-19T10:58:26;31.80;96.50
17571;DHT22;8903;52.220;20.978;2022-08-19T11:00:53;31.90;96.80
17571;DHT22;8903;52.220;20.978;2022-08-19T11:03:20;31.80;96.90
17571;DHT22;8903;52.220;20.978;2022-08-19T11:05:51;31.70;97.00
17571;DHT22;8903;52.220;20.978;2022-08-19T11:08:23;31.80;96.90
17571;DHT22;8903;52.220;20.978;2022-08-19T11:10:52;32.00;96.50
17571;DHT22;8903;52.220;20.978;2022-08-19T11:13:20;32.00;96.70
17571;DHT22;8903;52.220;20.978;2022-08-19T11:15:48;32.00;96.50
17571;DHT22;8903;52.220;20.978;2022-08-19T11:18:22;32.10;96.30
17571;DHT22;8903;52.220;20.978;2022-08-19T11:20:49;32.10;96.50
17571;DHT22;8903;52.220;20.978;2022-08-19T11:23:15;32.10;96.70
17571;DHT22;8903;52.220;20.978;2022-08-19T11:25:42;32.10;96.90
17571;DHT22;8903;52.220;20.978;2022-08-19T11:28:10;32.30;96.40
17571;DHT22;8903;52.220;20.978;2022-08-19T11:30:37;32.40;96.50
17571;DHT22;8903;52.220;20.978;2022-08-19T11:33:05;32.80;96.00
17571;DHT22;8903;52.220;20.978;2022-08-19T11:35:32;34.30;94.40
17571;DHT22;8903;52.220;20.978;2022-08-19T11:37:59;35.60;93.00
17571;DHT22;8903;52.220;20.978;2022-08-19T11:40:26;36.10;92.20
17571;DHT22;8903;52.220;20.978;2022-08-19T11:42:53;35.90;92.70
17571;DHT22;8903;52.220;20.978;2022-08-19T11:45:23;35.70;92.60
17571;DHT22;8903;52.220;20.978;2022-08-19T11:47:50;35.70;92.60
17571;DHT22;8903;52.220;20.978;2022-08-19T11:50:19;35.60;92.60
17571;DHT22;8903;52.220;20.978;2022-08-19T11:52:46;35.40;92.80
17571;DHT22;8903;52.220;20.978;2022-08-19T11:55:15;35.20;92.60
17571;DHT22;8903;52.220;20.978;2022-08-19T11:57:42;35.30;92.50
17571;DHT22;8903;52.220;20.978;2022-08-19T12:00:09;34.90;92.50
17571;DHT22;8903;52.220;20.978;2022-08-19T12:02:37;34.90;92.90
17571;DHT22;8903;52.220;20.978;2022-08-19T12:05:05;35.20;92.70
17571;DHT22;8903;52.220;20.978;2022-08-19T12:07:33;35.20;92.80
17571;DHT22;8903;52.220;20.978;2022-08-19T12:10:00;35.60;92.60
17571;DHT22;8903;52.220;20.978;2022-08-19T12:12:27;35.90;92.40
17571;DHT22;8903;52.220;20.978;2022-08-19T12:14:54;36.10;92.20
17571;DHT22;8903;52.220;20.978;2022-08-19T12:17:24;37.00;92.00
17571;DHT22;8903;52.220;20.978;2022-08-19T12:19:52;37.20;91.30
17571;DHT22;8903;52.220;20.978;2022-08-19T12:22:18;37.50;91.20
17571;DHT22;8903;52.220;20.978;2022-08-19T12:24:47;38.50;90.40
17571;DHT22;8903;52.220;20.978;2022-08-19T12:27:16;39.10;90.30
17571;DHT22;8903;52.220;20.978;2022-08-19T12:29:42;40.40;87.30
17571;DHT22;8903;52.220;20.978;2022-08-19T12:32:09;41.30;85.10
17571;DHT22;8903;52.220;20.978;2022-08-19T12:34:36;41.40;84.20
17571;DHT22;8903;52.220;20.978;2022-08-19T12:37:03;41.40;84.20
17571;DHT22;8903;52.220;20.978;2022-08-19T12:39:33;42.10;83.00
17571;DHT22;8903;52.220;20.978;2022-08-19T12:42:01;42.00;81.90
17571;DHT22;8903;52.220;20.978;2022-08-19T12:44:28;42.20;82.10
17571;DHT22;8903;52.220;20.978;2022-08-19T12:46:55;42.40;81.70
17571;DHT22;8903;52.220;20.978;2022-08-19T12:49:22;41.90;81.40
17571;DHT22;8903;52.220;20.978;2022-08-19T12:51:50;41.80;82.00
17571;DHT22;8903;52.220;20.978;2022-08-19T12:54:17;41.50;81.30
17571;DHT22;8903;52.220;20.978;2022-08-19T12:56:44;41.40;81.90
17571;DHT22;8903;52.220;20.978;2022-08-19T12:59:13;41.20;81.60
17571;DHT22;8903;52.220;20.978;2022-08-19T13:01:42;41.30;81.10
17571;DHT22;8903;52.220;20.978;2022-08-19T13:04:09;40.70;81.60
17571;DHT22;8903;52.220;20.978;2022-08-19T13:06:36;40.10;82.70
17571;DHT22;8903;52.220;20.978;2022-08-19T13:09:03;39.60;83.20
17571;DHT22;8903;52.220;20.978;2022-08-19T13:11:29;39.20;84.20
17571;DHT22;8903;52.220;20.978;2022-08-19T13:13:58;38.60;85.00
17571;DHT22;8903;52.220;20.978;2022-08-19T13:16:26;38.50;85.60
17571;DHT22;8903;52.220;20.978;2022-08-19T13:18:53;38.30;85.90
17571;DHT22;8903;52.220;20.978;2022-08-19T13:21:21;38.40;85.60
17571;DHT22;8903;52.220;20.978;2022-08-19T13:23:48;38.40;86.10
17571;DHT22;8903;52.220;20.978;2022-08-19T13:26:15;38.60;85.50
17571;DHT22;8903;52.220;20.978;2022-08-19T13:28:43;38.80;85.10
17571;DHT22;8903;52.220;20.978;2022-08-19T13:31:29;38.20;85.60
17571;DHT22;8903;52.220;20.978;2022-08-19T13:34:15;37.50;86.80
17571;DHT22;8903;52.220;20.978;2022-08-19T13:36:42;37.10;87.60
17571;DHT22;8903;52.220;20.978;2022-08-19T13:39:09;36.90;88.00
17571;DHT22;8903;52.220;20.978;2022-08-19T13:41:36;37.10;88.00
17571;DHT22;8903;52.220;20.978;2022-08-19T13:44:03;37.30;88.30
17571;DHT22;8903;52.220;20.978;2022-08-19T13:46:33;37.60;87.50
17571;DHT22;8903;52.220;20.978;2022-08-19T13:48:59;37.80;86.70
17571;DHT22;8903;52.220;20.978;2022-08-19T13:51:26;38.30;86.30
17571;DHT22;8903;52.220;20.978;2022-08-19T13:53:53;38.60;85.10
17571;DHT22;8903;52.220;20.978;2022-08-19T13:56:20;38.70;85.30
17571;DHT22;8903;52.220;20.978;2022-08-19T13:58:47;38.80;84.90
17571;DHT22;8903;52.220;20.978;2022-08-19T14:01:18;38.70;84.40
17571;DHT22;8903;52.220;20.978;2022-08-19T14:03:46;38.50;84.60
17571;DHT22;8903;52.220;20.978;2022-08-19T14:06:13;38.50;84.10
17571;DHT22;8903;52.220;20.978;2022-08-19T14:08:39;38.50;84.40
17571;DHT22;8903;52.220;20.978;2022-08-19T14:11:07;38.60;84.90
17571;DHT22;8903;52.220;20.978;2022-08-19T14:13:33;38.80;83.90
17571;DHT22;8903;52.220;20.978;2022-08-19T14:16:00;38.70;83.50
17571;DHT22;8903;52.220;20.978;2022-08-19T14:18:27;38.60;83.80
17571;DHT22;8903;52.220;20.978;2022-08-19T14:20:55;38.10;84.40
17571;DHT22;8903;52.220;20.978;2022-08-19T14:23:22;38.10;84.10
17571;DHT22;8903;52.220;20.978;2022-08-19T14:25:48;38.00;83.80
17571;DHT22;8903;52.220;20.978;2022-08-19T14:28:15;38.50;83.80
17571;DHT22;8903;52.220;20.978;2022-08-19T14:30:42;38.70;83.20
17571;DHT22;8903;52.220;20.978;2022-08-19T14:33:09;38.60;83.30
17571;DHT22;8903;52.220;20.978;2022-08-19T14:35:36;38.10;84.10
17571;DHT22;8903;52.220;20.978;2022-08-19T14:38:05;38.20;84.80
17571;DHT22;8903;52.220;20.978;2022-08-19T14:40:32;38.70;83.80
17571;DHT22;8903;52.220;20.978;2022-08-19T14:43:00;38.90;82.80
17571;DHT22;8903;52.220;20.978;2022-08-19T14:45:29;39.20;82.30
17571;DHT22;8903;52.220;20.978;2022-08-19T14:47:56;39.00;82.70
17571;DHT22;8903;52.220;20.978;2022-08-19T14:50:24;38.90;82.30
17571;DHT22;8903;52.220;20.978;2022-08-19T14:52:57;38.90;82.40
17571;DHT22;8903;52.220;20.978;2022-08-19T14:55:25;38.60;82.30
17571;DHT22;8903;52.220;20.978;2022-08-19T14:57:52;38.50;82.40
17571;DHT22;8903;52.220;20.978;2022-08-19T15:00:19;38.40;82.70
17571;DHT22;8903;52.220;20.978;2022-08-19T15:02:45;38.10;83.10
17571;DHT22;8903;52.220;20.978;2022-08-19T15:05:12;38.10;83.00
17571;DHT22;8903;52.220;20.978;2022-08-19T15:07:39;38.10;83.60
17571;DHT22;8903;52.220;20.978;2022-08-19T15:10:07;38.20;83.10
17571;DHT22;8903;52.220;20.978;2022-08-19T15:12:36;38.30;82.90
17571;DHT22;8903;52.220;20.978;2022-08-19T15:15:06;37.90;83.00
17571;DHT22;8903;52.220;20.978;2022-08-19T15:17:33;37.90;82.90
17571;DHT22;8903;52.220;20.978;2022-08-19T15:20:00;37.70;83.00
17571;DHT22;8903;52.220;20.978;2022-08-19T15:22:27;37.70;83.60
17571;DHT22;8903;52.220;20.978;2022-08-19T15:24:54;38.10;83.00
17571;DHT22;8903;52.220;20.978;2022-08-19T15:27:21;38.20;82.70
17571;DHT22;8903;52.220;20.978;2022-08-19T15:29:49;37.80;83.00
17571;DHT22;8903;52.220;20.978;2022-08-19T15:32:16;37.30;83.20
17571;DHT22;8903;52.220;20.978;2022-08-19T15:34:42;37.30;83.80